sensor_id;sensor_type;location;lat;lon;timestamp;P1;durP1;ratioP1;P2;durP2;ratioP2
3589;SDS011;1809;48.470;9.226;2023-07-30T00:00:42;4.83;;;4.00;;
3589;SDS011;1809;48.470;9.226;2023-07-30T00:03:07;3.80;;;3.60;;
3589;SDS011;1809;48.470;9.226;2023-07-30T00:05:32;4.17;;;3.87;;
3589;SDS011;1809;48.470;9.226;2023-07-30T00:07:58;4.07;;;3.70;;
3589;SDS011;1809;48.470;9.226;2023-07-30T00:10:23;3.43;;;3.23;;
3589;SDS011;1809;48.470;9.226;2023-07-30T00:12:48;3.77;;;3.37;;
3589;SDS011;1809;48.470;9.226;2023-07-30T00:15:14;4.47;;;3.70;;
3589;SDS011;1809;48.470;9.226;2023-07-30T00:17:39;4.03;;;3.63;;
3589;SDS011;1809;48.470;9.226;2023-07-30T00:20:06;4.20;;;3.80;;
3589;SDS011;1809;48.470;9.226;2023-07-30T00:22:32;3.80;;;3.60;;
3589;SDS011;1809;48.470;9.226;2023-07-30T00:24:58;6.90;;;4.50;;
3589;SDS011;1809;48.470;9.226;2023-07-30T00:27:24;3.90;;;3.60;;
3589;SDS011;1809;48.470;9.226;2023-07-30T00:29:49;4.00;;;3.70;;
3589;SDS011;1809;48.470;9.226;2023-07-30T00:32:14;3.70;;;3.50;;
3589;SDS011;1809;48.470;9.226;2023-07-30T00:34:43;4.37;;;4.10;;
3589;SDS011;1809;48.470;9.226;2023-07-30T00:37:08;3.67;;;3.47;;
3589;SDS011;1809;48.470;9.226;2023-07-30T00:39:34;4.43;;;4.13;;
3589;SDS011;1809;48.470;9.226;2023-07-30T00:41:59;4.33;;;4.03;;
3589;SDS011;1809;48.470;9.226;2023-07-30T00:44:25;4.03;;;3.73;;
3589;SDS011;1809;48.470;9.226;2023-07-30T00:46:50;4.00;;;3.70;;
3589;SDS011;1809;48.470;9.226;2023-07-30T00:49:15;4.10;;;3.80;;
3589;SDS011;1809;48.470;9.226;2023-07-30T00:51:41;4.37;;;4.10;;
3589;SDS011;1809;48.470;9.226;2023-07-30T00:54:07;4.37;;;4.07;;
3589;SDS011;1809;48.470;9.226;2023-07-30T00:56:33;3.90;;;3.53;;
3589;SDS011;1809;48.470;9.226;2023-07-30T00:59:01;5.40;;;4.00;;
3589;SDS011;1809;48.470;9.226;2023-07-30T01:01:27;4.27;;;3.97;;
3589;SDS011;1809;48.470;9.226;2023-07-30T01:03:53;3.70;;;3.50;;
3589;SDS011;1809;48.470;9.226;2023-07-30T01:06:19;3.87;;;3.37;;
3589;SDS011;1809;48.470;9.226;2023-07-30T01:08:45;4.57;;;4.13;;
3589;SDS011;1809;48.470;9.226;2023-07-30T01:11:11;4.07;;;3.57;;
3589;SDS011;1809;48.470;9.226;2023-07-30T01:13:38;4.43;;;4.03;;
3589;SDS011;1809;48.470;9.226;2023-07-30T01:16:04;4.40;;;3.77;;
3589;SDS011;1809;48.470;9.226;2023-07-30T01:18:31;3.40;;;3.10;;
3589;SDS011;1809;48.470;9.226;2023-07-30T01:20:57;3.27;;;3.07;;
3589;SDS011;1809;48.470;9.226;2023-07-30T01:23:23;3.20;;;3.00;;
3589;SDS011;1809;48.470;9.226;2023-07-30T01:25:49;7.73;;;3.50;;
3589;SDS011;1809;48.470;9.226;2023-07-30T01:28:28;2.90;;;2.80;;
3589;SDS011;1809;48.470;9.226;2023-07-30T01:31:01;7.23;;;2.77;;
3589;SDS011;1809;48.470;9.226;2023-07-30T01:33:28;3.23;;;2.93;;
3589;SDS011;1809;48.470;9.226;2023-07-30T01:35:55;2.70;;;2.60;;
3589;SDS011;1809;48.470;9.226;2023-07-30T01:38:25;3.33;;;3.03;;
3589;SDS011;1809;48.470;9.226;2023-07-30T01:40:51;3.13;;;2.93;;
3589;SDS011;1809;48.470;9.226;2023-07-30T01:43:16;2.90;;;2.80;;
3589;SDS011;1809;48.470;9.226;2023-07-30T01:45:42;3.20;;;3.00;;
3589;SDS011;1809;48.470;9.226;2023-07-30T01:48:07;3.37;;;3.17;;
3589;SDS011;1809;48.470;9.226;2023-07-30T01:50:33;2.97;;;2.77;;
3589;SDS011;1809;48.470;9.226;2023-07-30T01:52:58;2.80;;;2.40;;
3589;SDS011;1809;48.470;9.226;2023-07-30T01:55:24;4.03;;;2.47;;
3589;SDS011;1809;48.470;9.226;2023-07-30T01:57:49;4.50;;;2.60;;
3589;SDS011;1809;48.470;9.226;2023-07-30T02:00:14;2.67;;;2.57;;
3589;SDS011;1809;48.470;9.226;2023-07-30T02:02:40;2.80;;;2.70;;
3589;SDS011;1809;48.470;9.226;2023-07-30T02:05:05;2.60;;;2.50;;
3589;SDS011;1809;48.470;9.226;2023-07-30T02:07:31;3.07;;;2.90;;
3589;SDS011;1809;48.470;9.226;2023-07-30T02:09:56;2.63;;;2.53;;
3589;SDS011;1809;48.470;9.226;2023-07-30T02:12:21;3.33;;;3.10;;
3589;SDS011;1809;48.470;9.226;2023-07-30T02:14:47;3.20;;;3.00;;
3589;SDS011;1809;48.470;9.226;2023-07-30T02:17:15;3.17;;;2.97;;
3589;SDS011;1809;48.470;9.226;2023-07-30T02:19:40;3.47;;;3.07;;
3589;SDS011;1809;48.470;9.226;2023-07-30T02:22:07;2.73;;;2.53;;
3589;SDS011;1809;48.470;9.226;2023-07-30T02:24:32;2.97;;;2.77;;
3589;SDS011;1809;48.470;9.226;2023-07-30T02:26:57;3.20;;;3.00;;
3589;SDS011;1809;48.470;9.226;2023-07-30T02:29:23;3.27;;;3.07;;
3589;SDS011;1809;48.470;9.226;2023-07-30T02:31:48;3.30;;;3.10;;
3589;SDS011;1809;48.470;9.226;2023-07-30T02:34:13;2.77;;;2.60;;
3589;SDS011;1809;48.470;9.226;2023-07-30T02:36:41;3.23;;;2.37;;
3589;SDS011;1809;48.470;9.226;2023-07-30T02:39:07;2.27;;;2.17;;
3589;SDS011;1809;48.470;9.226;2023-07-30T02:41:32;2.80;;;2.70;;
3589;SDS011;1809;48.470;9.226;2023-07-30T02:43:58;3.13;;;2.93;;
3589;SDS011;1809;48.470;9.226;2023-07-30T02:46:23;2.90;;;2.70;;
3589;SDS011;1809;48.470;9.226;2023-07-30T02:48:48;2.77;;;2.57;;
3589;SDS011;1809;48.470;9.226;2023-07-30T02:51:13;2.80;;;2.60;;
3589;SDS011;1809;48.470;9.226;2023-07-30T02:53:39;2.77;;;2.57;;
3589;SDS011;1809;48.470;9.226;2023-07-30T02:56:04;1.87;;;1.77;;
3589;SDS011;1809;48.470;9.226;2023-07-30T02:58:29;2.40;;;1.90;;
3589;SDS011;1809;48.470;9.226;2023-07-30T03:00:55;2.70;;;2.60;;
3589;SDS011;1809;48.470;9.226;2023-07-30T03:03:20;2.77;;;2.60;;
3589;SDS011;1809;48.470;9.226;2023-07-30T03:05:45;2.53;;;2.37;;
3589;SDS011;1809;48.470;9.226;2023-07-30T03:08:10;2.40;;;2.30;;
3589;SDS011;1809;48.470;9.226;2023-07-30T03:10:38;3.00;;;2.80;;
3589;SDS011;1809;48.470;9.226;2023-07-30T03:13:04;2.30;;;2.20;;
3589;SDS011;1809;48.470;9.226;2023-07-30T03:15:29;2.37;;;2.20;;
3589;SDS011;1809;48.470;9.226;2023-07-30T03:17:54;2.60;;;2.50;;
3589;SDS011;1809;48.470;9.226;2023-07-30T03:20:20;2.50;;;2.17;;
3589;SDS011;1809;48.470;9.226;2023-07-30T03:22:45;2.13;;;2.03;;
3589;SDS011;1809;48.470;9.226;2023-07-30T03:25:10;2.73;;;2.60;;
3589;SDS011;1809;48.470;9.226;2023-07-30T03:27:36;4.77;;;2.47;;
3589;SDS011;1809;48.470;9.226;2023-07-30T03:30:01;2.80;;;2.60;;
3589;SDS011;1809;48.470;9.226;2023-07-30T03:32:29;2.40;;;2.30;;
3589;SDS011;1809;48.470;9.226;2023-07-30T03:34:57;2.57;;;2.47;;
3589;SDS011;1809;48.470;9.226;2023-07-30T03:37:22;4.40;;;2.23;;
3589;SDS011;1809;48.470;9.226;2023-07-30T03:39:48;3.10;;;2.80;;
3589;SDS011;1809;48.470;9.226;2023-07-30T03:42:13;2.90;;;2.07;;
3589;SDS011;1809;48.470;9.226;2023-07-30T03:44:38;2.60;;;2.40;;
3589;SDS011;1809;48.470;9.226;2023-07-30T03:47:04;2.43;;;2.23;;
3589;SDS011;1809;48.470;9.226;2023-07-30T03:49:29;2.10;;;2.00;;
3589;SDS011;1809;48.470;9.226;2023-07-30T03:51:54;3.00;;;2.80;;
3589;SDS011;1809;48.470;9.226;2023-07-30T03:54:20;2.40;;;1.67;;
3589;SDS011;1809;48.470;9.226;2023-07-30T03:56:45;2.90;;;2.50;;
3589;SDS011;1809;48.470;9.226;2023-07-30T03:59:10;2.47;;;2.37;;
3589;SDS011;1809;48.470;9.226;2023-07-30T04:01:36;5.37;;;2.17;;
3589;SDS011;1809;48.470;9.226;2023-07-30T04:04:01;2.30;;;2.20;;
3589;SDS011;1809;48.470;9.226;2023-07-30T04:06:26;2.47;;;2.37;;
3589;SDS011;1809;48.470;9.226;2023-07-30T04:08:52;3.00;;;2.70;;
3589;SDS011;1809;48.470;9.226;2023-07-30T04:11:20;2.30;;;2.10;;
3589;SDS011;1809;48.470;9.226;2023-07-30T04:13:45;1.87;;;1.77;;
3589;SDS011;1809;48.470;9.226;2023-07-30T04:16:10;3.03;;;2.73;;
3589;SDS011;1809;48.470;9.226;2023-07-30T04:18:35;3.50;;;2.23;;
3589;SDS011;1809;48.470;9.226;2023-07-30T04:21:01;2.40;;;2.30;;
3589;SDS011;1809;48.470;9.226;2023-07-30T04:23:26;2.40;;;2.30;;
3589;SDS011;1809;48.470;9.226;2023-07-30T04:25:52;2.80;;;2.53;;
3589;SDS011;1809;48.470;9.226;2023-07-30T04:28:17;2.50;;;2.40;;
3589;SDS011;1809;48.470;9.226;2023-07-30T04:30:42;2.73;;;2.63;;
3589;SDS011;1809;48.470;9.226;2023-07-30T04:33:08;2.73;;;2.63;;
3589;SDS011;1809;48.470;9.226;2023-07-30T04:35:34;3.00;;;2.10;;
3589;SDS011;1809;48.470;9.226;2023-07-30T04:37:59;10.73;;;2.60;;
3589;SDS011;1809;48.470;9.226;2023-07-30T04:40:25;3.03;;;2.83;;
3589;SDS011;1809;48.470;9.226;2023-07-30T04:42:50;3.17;;;2.87;;
3589;SDS011;1809;48.470;9.226;2023-07-30T04:45:15;3.93;;;2.73;;
3589;SDS011;1809;48.470;9.226;2023-07-30T04:47:41;3.70;;;3.00;;
3589;SDS011;1809;48.470;9.226;2023-07-30T04:50:06;2.60;;;2.40;;
3589;SDS011;1809;48.470;9.226;2023-07-30T04:52:32;2.90;;;2.33;;
3589;SDS011;1809;48.470;9.226;2023-07-30T04:54:57;2.43;;;2.20;;
3589;SDS011;1809;48.470;9.226;2023-07-30T04:57:22;2.77;;;2.57;;
3589;SDS011;1809;48.470;9.226;2023-07-30T04:59:48;3.00;;;2.80;;
3589;SDS011;1809;48.470;9.226;2023-07-30T05:02:13;2.63;;;2.47;;
3589;SDS011;1809;48.470;9.226;2023-07-30T05:04:42;4.23;;;2.30;;
3589;SDS011;1809;48.470;9.226;2023-07-30T05:07:07;1.90;;;1.80;;
3589;SDS011;1809;48.470;9.226;2023-07-30T05:09:32;2.50;;;2.40;;
3589;SDS011;1809;48.470;9.226;2023-07-30T05:11:57;2.20;;;2.10;;
3589;SDS011;1809;48.470;9.226;2023-07-30T05:14:23;3.10;;;2.57;;
3589;SDS011;1809;48.470;9.226;2023-07-30T05:16:48;3.47;;;2.20;;
3589;SDS011;1809;48.470;9.226;2023-07-30T05:19:15;2.83;;;2.30;;
3589;SDS011;1809;48.470;9.226;2023-07-30T05:21:41;1.90;;;1.80;;
3589;SDS011;1809;48.470;9.226;2023-07-30T05:24:06;2.60;;;2.40;;
3589;SDS011;1809;48.470;9.226;2023-07-30T05:26:32;2.40;;;2.30;;
3589;SDS011;1809;48.470;9.226;2023-07-30T05:28:57;4.33;;;2.10;;
3589;SDS011;1809;48.470;9.226;2023-07-30T05:31:23;2.40;;;2.20;;
3589;SDS011;1809;48.470;9.226;2023-07-30T05:33:48;4.90;;;2.40;;
3589;SDS011;1809;48.470;9.226;2023-07-30T05:36:13;2.17;;;2.07;;
3589;SDS011;1809;48.470;9.226;2023-07-30T05:38:39;6.83;;;2.27;;
3589;SDS011;1809;48.470;9.226;2023-07-30T05:41:04;2.30;;;2.20;;
3589;SDS011;1809;48.470;9.226;2023-07-30T05:43:29;5.30;;;2.10;;
3589;SDS011;1809;48.470;9.226;2023-07-30T05:45:55;2.30;;;2.10;;
3589;SDS011;1809;48.470;9.226;2023-07-30T05:48:20;2.20;;;2.10;;
3589;SDS011;1809;48.470;9.226;2023-07-30T05:50:45;2.20;;;2.10;;
3589;SDS011;1809;48.470;9.226;2023-07-30T05:53:11;2.47;;;2.37;;
3589;SDS011;1809;48.470;9.226;2023-07-30T05:55:36;2.60;;;2.40;;
3589;SDS011;1809;48.470;9.226;2023-07-30T05:58:01;2.40;;;2.20;;
3589;SDS011;1809;48.470;9.226;2023-07-30T06:00:27;2.43;;;2.30;;
3589;SDS011;1809;48.470;9.226;2023-07-30T06:02:52;2.20;;;2.10;;
3589;SDS011;1809;48.470;9.226;2023-07-30T06:05:19;2.40;;;2.30;;
3589;SDS011;1809;48.470;9.226;2023-07-30T06:07:45;3.87;;;2.43;;
3589;SDS011;1809;48.470;9.226;2023-07-30T06:10:10;5.80;;;2.20;;
3589;SDS011;1809;48.470;9.226;2023-07-30T06:12:36;4.60;;;3.00;;
3589;SDS011;1809;48.470;9.226;2023-07-30T06:15:01;2.40;;;2.30;;
3589;SDS011;1809;48.470;9.226;2023-07-30T06:17:26;2.97;;;2.70;;
3589;SDS011;1809;48.470;9.226;2023-07-30T06:19:52;3.30;;;1.90;;
3589;SDS011;1809;48.470;9.226;2023-07-30T06:22:17;2.70;;;2.50;;
3589;SDS011;1809;48.470;9.226;2023-07-30T06:24:43;4.53;;;2.70;;
3589;SDS011;1809;48.470;9.226;2023-07-30T06:27:09;3.67;;;2.53;;
3589;SDS011;1809;48.470;9.226;2023-07-30T06:29:35;2.90;;;2.60;;
3589;SDS011;1809;48.470;9.226;2023-07-30T06:32:00;2.30;;;2.20;;
3589;SDS011;1809;48.470;9.226;2023-07-30T06:34:26;2.47;;;2.37;;
3589;SDS011;1809;48.470;9.226;2023-07-30T06:36:51;2.40;;;2.30;;
3589;SDS011;1809;48.470;9.226;2023-07-30T06:39:16;2.00;;;1.90;;
3589;SDS011;1809;48.470;9.226;2023-07-30T06:41:42;3.10;;;2.90;;
3589;SDS011;1809;48.470;9.226;2023-07-30T06:44:07;2.83;;;2.63;;
3589;SDS011;1809;48.470;9.226;2023-07-30T06:46:33;2.50;;;2.40;;
3589;SDS011;1809;48.470;9.226;2023-07-30T06:48:58;3.60;;;2.60;;
3589;SDS011;1809;48.470;9.226;2023-07-30T06:51:24;2.77;;;1.90;;
3589;SDS011;1809;48.470;9.226;2023-07-30T06:53:50;2.23;;;2.13;;
3589;SDS011;1809;48.470;9.226;2023-07-30T06:56:15;2.30;;;2.07;;
3589;SDS011;1809;48.470;9.226;2023-07-30T06:58:41;2.13;;;2.03;;
3589;SDS011;1809;48.470;9.226;2023-07-30T07:01:06;2.13;;;2.03;;
3589;SDS011;1809;48.470;9.226;2023-07-30T07:03:32;2.13;;;2.00;;
3589;SDS011;1809;48.470;9.226;2023-07-30T07:05:57;3.00;;;1.63;;
3589;SDS011;1809;48.470;9.226;2023-07-30T07:08:22;1.60;;;1.60;;
3589;SDS011;1809;48.470;9.226;2023-07-30T07:10:48;1.97;;;1.87;;
3589;SDS011;1809;48.470;9.226;2023-07-30T07:13:14;1.30;;;1.30;;
3589;SDS011;1809;48.470;9.226;2023-07-30T07:15:42;1.50;;;1.50;;
3589;SDS011;1809;48.470;9.226;2023-07-30T07:18:08;1.60;;;1.53;;
3589;SDS011;1809;48.470;9.226;2023-07-30T07:20:34;1.70;;;1.60;;
3589;SDS011;1809;48.470;9.226;2023-07-30T07:22:59;1.77;;;1.67;;
3589;SDS011;1809;48.470;9.226;2023-07-30T07:25:24;2.50;;;1.80;;
3589;SDS011;1809;48.470;9.226;2023-07-30T07:27:50;2.10;;;1.60;;
3589;SDS011;1809;48.470;9.226;2023-07-30T07:30:15;1.90;;;1.80;;
3589;SDS011;1809;48.470;9.226;2023-07-30T07:32:40;2.20;;;2.00;;
3589;SDS011;1809;48.470;9.226;2023-07-30T07:35:06;1.63;;;1.63;;
3589;SDS011;1809;48.470;9.226;2023-07-30T07:37:32;3.87;;;1.80;;
3589;SDS011;1809;48.470;9.226;2023-07-30T07:39:58;2.03;;;1.93;;
3589;SDS011;1809;48.470;9.226;2023-07-30T07:42:23;2.37;;;2.17;;
3589;SDS011;1809;48.470;9.226;2023-07-30T07:44:49;2.47;;;2.37;;
3589;SDS011;1809;48.470;9.226;2023-07-30T07:47:14;2.00;;;1.90;;
3589;SDS011;1809;48.470;9.226;2023-07-30T07:49:39;2.13;;;2.03;;
3589;SDS011;1809;48.470;9.226;2023-07-30T07:52:05;2.40;;;2.30;;
3589;SDS011;1809;48.470;9.226;2023-07-30T07:54:30;2.10;;;2.00;;
3589;SDS011;1809;48.470;9.226;2023-07-30T07:56:55;1.97;;;1.87;;
3589;SDS011;1809;48.470;9.226;2023-07-30T07:59:21;2.37;;;2.10;;
3589;SDS011;1809;48.470;9.226;2023-07-30T08:01:46;2.50;;;2.30;;
3589;SDS011;1809;48.470;9.226;2023-07-30T08:04:12;1.87;;;1.70;;
3589;SDS011;1809;48.470;9.226;2023-07-30T08:06:38;2.50;;;2.40;;
3589;SDS011;1809;48.470;9.226;2023-07-30T08:09:03;2.40;;;2.23;;
3589;SDS011;1809;48.470;9.226;2023-07-30T08:11:32;2.17;;;2.00;;
3589;SDS011;1809;48.470;9.226;2023-07-30T08:13:58;2.50;;;2.03;;
3589;SDS011;1809;48.470;9.226;2023-07-30T08:16:26;2.73;;;2.63;;
3589;SDS011;1809;48.470;9.226;2023-07-30T08:18:52;3.77;;;2.70;;
3589;SDS011;1809;48.470;9.226;2023-07-30T08:21:17;2.60;;;2.40;;
3589;SDS011;1809;48.470;9.226;2023-07-30T08:23:45;2.07;;;1.97;;
3589;SDS011;1809;48.470;9.226;2023-07-30T08:26:12;1.90;;;1.80;;
3589;SDS011;1809;48.470;9.226;2023-07-30T08:28:39;1.87;;;1.70;;
3589;SDS011;1809;48.470;9.226;2023-07-30T08:31:05;2.03;;;1.93;;
3589;SDS011;1809;48.470;9.226;2023-07-30T08:33:31;2.10;;;2.00;;
3589;SDS011;1809;48.470;9.226;2023-07-30T08:35:58;1.63;;;1.53;;
3589;SDS011;1809;48.470;9.226;2023-07-30T08:38:24;4.00;;;2.07;;
3589;SDS011;1809;48.470;9.226;2023-07-30T08:40:53;1.70;;;1.60;;
3589;SDS011;1809;48.470;9.226;2023-07-30T08:43:18;2.40;;;1.43;;
3589;SDS011;1809;48.470;9.226;2023-07-30T08:45:47;2.27;;;1.60;;
3589;SDS011;1809;48.470;9.226;2023-07-30T08:48:18;2.60;;;1.63;;
3589;SDS011;1809;48.470;9.226;2023-07-30T08:50:43;2.10;;;2.00;;
3589;SDS011;1809;48.470;9.226;2023-07-30T08:53:10;3.93;;;2.30;;
3589;SDS011;1809;48.470;9.226;2023-07-30T08:55:37;2.37;;;2.13;;
3589;SDS011;1809;48.470;9.226;2023-07-30T08:58:05;1.47;;;1.37;;
3589;SDS011;1809;48.470;9.226;2023-07-30T09:00:33;2.20;;;1.63;;
3589;SDS011;1809;48.470;9.226;2023-07-30T09:03:02;1.57;;;1.57;;
3589;SDS011;1809;48.470;9.226;2023-07-30T09:05:29;1.87;;;1.77;;
3589;SDS011;1809;48.470;9.226;2023-07-30T09:07:56;11.10;;;2.63;;
3589;SDS011;1809;48.470;9.226;2023-07-30T09:10:26;1.93;;;1.83;;
3589;SDS011;1809;48.470;9.226;2023-07-30T09:12:57;2.33;;;2.23;;
3589;SDS011;1809;48.470;9.226;2023-07-30T09:15:31;1.87;;;1.77;;
3589;SDS011;1809;48.470;9.226;2023-07-30T09:18:02;1.90;;;1.80;;
3589;SDS011;1809;48.470;9.226;2023-07-30T09:20:38;2.30;;;2.20;;
3589;SDS011;1809;48.470;9.226;2023-07-30T09:23:11;5.30;;;2.03;;
3589;SDS011;1809;48.470;9.226;2023-07-30T09:25:40;1.83;;;1.50;;
3589;SDS011;1809;48.470;9.226;2023-07-30T09:28:12;3.13;;;1.83;;
3589;SDS011;1809;48.470;9.226;2023-07-30T09:30:38;1.67;;;1.63;;
3589;SDS011;1809;48.470;9.226;2023-07-30T09:33:04;2.03;;;1.93;;
3589;SDS011;1809;48.470;9.226;2023-07-30T09:35:32;2.17;;;2.07;;
3589;SDS011;1809;48.470;9.226;2023-07-30T09:37:59;4.30;;;2.00;;
3589;SDS011;1809;48.470;9.226;2023-07-30T09:40:32;2.23;;;1.87;;
3589;SDS011;1809;48.470;9.226;2023-07-30T09:42:58;2.10;;;2.00;;
3589;SDS011;1809;48.470;9.226;2023-07-30T09:45:25;2.60;;;2.00;;
3589;SDS011;1809;48.470;9.226;2023-07-30T09:47:51;2.40;;;2.13;;
3589;SDS011;1809;48.470;9.226;2023-07-30T09:50:18;5.43;;;2.00;;
3589;SDS011;1809;48.470;9.226;2023-07-30T09:52:44;2.23;;;2.13;;
3589;SDS011;1809;48.470;9.226;2023-07-30T09:55:10;1.97;;;1.77;;
3589;SDS011;1809;48.470;9.226;2023-07-30T09:57:36;2.97;;;2.10;;
3589;SDS011;1809;48.470;9.226;2023-07-30T10:00:02;2.07;;;1.97;;
3589;SDS011;1809;48.470;9.226;2023-07-30T10:02:29;1.80;;;1.70;;
3589;SDS011;1809;48.470;9.226;2023-07-30T10:04:59;5.33;;;1.63;;
3589;SDS011;1809;48.470;9.226;2023-07-30T10:07:25;1.87;;;1.77;;
3589;SDS011;1809;48.470;9.226;2023-07-30T10:09:53;1.87;;;1.77;;
3589;SDS011;1809;48.470;9.226;2023-07-30T10:12:24;1.70;;;1.60;;
3589;SDS011;1809;48.470;9.226;2023-07-30T10:14:55;1.30;;;1.20;;
3589;SDS011;1809;48.470;9.226;2023-07-30T10:17:21;4.20;;;1.40;;
3589;SDS011;1809;48.470;9.226;2023-07-30T10:19:47;1.27;;;1.27;;
3589;SDS011;1809;48.470;9.226;2023-07-30T10:22:20;1.57;;;1.57;;
3589;SDS011;1809;48.470;9.226;2023-07-30T10:24:57;1.67;;;1.57;;
3589;SDS011;1809;48.470;9.226;2023-07-30T10:27:24;1.47;;;1.40;;
3589;SDS011;1809;48.470;9.226;2023-07-30T10:30:07;2.27;;;1.87;;
3589;SDS011;1809;48.470;9.226;2023-07-30T10:41:02;2.17;;;2.07;;
3589;SDS011;1809;48.470;9.226;2023-07-30T10:43:46;2.80;;;1.50;;
3589;SDS011;1809;48.470;9.226;2023-07-30T10:46:14;2.07;;;1.87;;
3589;SDS011;1809;48.470;9.226;2023-07-30T10:48:42;2.20;;;2.03;;
3589;SDS011;1809;48.470;9.226;2023-07-30T10:51:10;2.80;;;2.07;;
3589;SDS011;1809;48.470;9.226;2023-07-30T10:53:36;2.00;;;1.90;;
3589;SDS011;1809;48.470;9.226;2023-07-30T10:56:03;8.30;;;2.80;;
3589;SDS011;1809;48.470;9.226;2023-07-30T10:58:30;2.00;;;1.90;;
3589;SDS011;1809;48.470;9.226;2023-07-30T11:00:56;2.20;;;2.10;;
3589;SDS011;1809;48.470;9.226;2023-07-30T11:03:24;2.27;;;2.17;;
3589;SDS011;1809;48.470;9.226;2023-07-30T11:05:51;2.00;;;1.90;;
3589;SDS011;1809;48.470;9.226;2023-07-30T11:08:17;2.17;;;2.07;;
3589;SDS011;1809;48.470;9.226;2023-07-30T11:10:43;1.90;;;1.80;;
3589;SDS011;1809;48.470;9.226;2023-07-30T11:13:12;1.57;;;1.47;;
3589;SDS011;1809;48.470;9.226;2023-07-30T11:15:42;3.97;;;1.90;;
3589;SDS011;1809;48.470;9.226;2023-07-30T11:18:08;3.00;;;2.47;;
3589;SDS011;1809;48.470;9.226;2023-07-30T11:20:34;2.03;;;1.90;;
3589;SDS011;1809;48.470;9.226;2023-07-30T11:23:05;2.30;;;2.10;;
3589;SDS011;1809;48.470;9.226;2023-07-30T11:25:45;2.03;;;1.93;;
3589;SDS011;1809;48.470;9.226;2023-07-30T11:28:11;2.20;;;2.10;;
3589;SDS011;1809;48.470;9.226;2023-07-30T11:30:36;1.97;;;1.87;;
3589;SDS011;1809;48.470;9.226;2023-07-30T11:33:01;3.97;;;2.63;;
3589;SDS011;1809;48.470;9.226;2023-07-30T11:35:27;1.53;;;1.53;;
3589;SDS011;1809;48.470;9.226;2023-07-30T11:37:53;4.10;;;2.20;;
3589;SDS011;1809;48.470;9.226;2023-07-30T11:40:19;3.63;;;2.10;;
3589;SDS011;1809;48.470;9.226;2023-07-30T11:42:44;3.53;;;2.47;;
3589;SDS011;1809;48.470;9.226;2023-07-30T11:45:20;2.40;;;2.00;;
3589;SDS011;1809;48.470;9.226;2023-07-30T11:47:47;3.47;;;2.50;;
3589;SDS011;1809;48.470;9.226;2023-07-30T11:50:13;2.30;;;2.20;;
3589;SDS011;1809;48.470;9.226;2023-07-30T11:52:53;2.27;;;2.07;;
3589;SDS011;1809;48.470;9.226;2023-07-30T11:55:20;2.73;;;2.30;;
3589;SDS011;1809;48.470;9.226;2023-07-30T11:57:45;6.73;;;2.47;;
3589;SDS011;1809;48.470;9.226;2023-07-30T12:00:11;3.67;;;2.27;;
3589;SDS011;1809;48.470;9.226;2023-07-30T12:02:39;3.73;;;2.30;;
3589;SDS011;1809;48.470;9.226;2023-07-30T12:05:05;2.00;;;1.90;;
3589;SDS011;1809;48.470;9.226;2023-07-30T12:07:32;2.43;;;2.30;;
3589;SDS011;1809;48.470;9.226;2023-07-30T12:10:08;2.63;;;2.37;;
3589;SDS011;1809;48.470;9.226;2023-07-30T12:12:34;1.83;;;1.73;;
3589;SDS011;1809;48.470;9.226;2023-07-30T12:14:59;2.60;;;2.50;;
3589;SDS011;1809;48.470;9.226;2023-07-30T12:17:25;3.73;;;2.43;;
3589;SDS011;1809;48.470;9.226;2023-07-30T12:19:50;2.40;;;2.30;;
3589;SDS011;1809;48.470;9.226;2023-07-30T12:22:15;2.50;;;2.40;;
3589;SDS011;1809;48.470;9.226;2023-07-30T12:24:43;1.90;;;1.80;;
3589;SDS011;1809;48.470;9.226;2023-07-30T12:27:08;2.20;;;2.10;;
3589;SDS011;1809;48.470;9.226;2023-07-30T12:29:34;4.23;;;2.63;;
3589;SDS011;1809;48.470;9.226;2023-07-30T12:31:59;2.23;;;2.13;;
3589;SDS011;1809;48.470;9.226;2023-07-30T12:34:24;2.10;;;1.90;;
3589;SDS011;1809;48.470;9.226;2023-07-30T12:36:50;2.30;;;2.00;;
3589;SDS011;1809;48.470;9.226;2023-07-30T12:39:15;2.17;;;2.07;;
3589;SDS011;1809;48.470;9.226;2023-07-30T12:41:40;2.53;;;2.30;;
3589;SDS011;1809;48.470;9.226;2023-07-30T12:44:06;2.27;;;2.17;;
3589;SDS011;1809;48.470;9.226;2023-07-30T12:46:31;2.10;;;2.00;;
3589;SDS011;1809;48.470;9.226;2023-07-30T12:48:57;2.20;;;2.10;;
3589;SDS011;1809;48.470;9.226;2023-07-30T12:51:29;2.37;;;2.27;;
3589;SDS011;1809;48.470;9.226;2023-07-30T12:53:54;2.30;;;2.10;;
3589;SDS011;1809;48.470;9.226;2023-07-30T12:56:20;2.30;;;2.17;;
3589;SDS011;1809;48.470;9.226;2023-07-30T12:58:45;2.20;;;2.10;;
3589;SDS011;1809;48.470;9.226;2023-07-30T13:01:10;2.37;;;1.73;;
3589;SDS011;1809;48.470;9.226;2023-07-30T13:03:36;2.07;;;1.97;;
3589;SDS011;1809;48.470;9.226;2023-07-30T13:06:01;2.47;;;2.37;;
3589;SDS011;1809;48.470;9.226;2023-07-30T13:08:27;2.43;;;2.33;;
3589;SDS011;1809;48.470;9.226;2023-07-30T13:10:52;3.57;;;2.13;;
3589;SDS011;1809;48.470;9.226;2023-07-30T13:13:17;2.40;;;2.30;;
3589;SDS011;1809;48.470;9.226;2023-07-30T13:15:43;4.43;;;1.83;;
3589;SDS011;1809;48.470;9.226;2023-07-30T13:18:08;2.43;;;2.33;;
3589;SDS011;1809;48.470;9.226;2023-07-30T13:20:35;2.43;;;2.33;;
3589;SDS011;1809;48.470;9.226;2023-07-30T13:23:00;2.30;;;2.20;;
3589;SDS011;1809;48.470;9.226;2023-07-30T13:25:28;2.03;;;1.97;;
3589;SDS011;1809;48.470;9.226;2023-07-30T13:27:54;2.30;;;1.90;;
3589;SDS011;1809;48.470;9.226;2023-07-30T13:30:19;3.93;;;2.70;;
3589;SDS011;1809;48.470;9.226;2023-07-30T13:32:44;2.17;;;2.07;;
3589;SDS011;1809;48.470;9.226;2023-07-30T13:35:10;2.40;;;2.20;;
3589;SDS011;1809;48.470;9.226;2023-07-30T13:37:38;3.07;;;2.77;;
3589;SDS011;1809;48.470;9.226;2023-07-30T13:40:06;2.70;;;2.60;;
3589;SDS011;1809;48.470;9.226;2023-07-30T13:42:32;3.17;;;2.97;;
3589;SDS011;1809;48.470;9.226;2023-07-30T13:44:57;3.80;;;2.40;;
3589;SDS011;1809;48.470;9.226;2023-07-30T13:47:23;2.30;;;2.10;;
3589;SDS011;1809;48.470;9.226;2023-07-30T13:49:48;8.67;;;2.87;;
3589;SDS011;1809;48.470;9.226;2023-07-30T13:52:14;5.47;;;2.40;;
3589;SDS011;1809;48.470;9.226;2023-07-30T13:54:42;2.97;;;2.77;;
3589;SDS011;1809;48.470;9.226;2023-07-30T13:57:10;2.70;;;2.50;;
3589;SDS011;1809;48.470;9.226;2023-07-30T13:59:36;4.70;;;2.67;;
3589;SDS011;1809;48.470;9.226;2023-07-30T14:02:02;3.97;;;2.77;;
3589;SDS011;1809;48.470;9.226;2023-07-30T14:04:27;2.07;;;1.90;;
3589;SDS011;1809;48.470;9.226;2023-07-30T14:06:53;2.90;;;2.70;;
3589;SDS011;1809;48.470;9.226;2023-07-30T14:09:18;3.33;;;2.70;;
3589;SDS011;1809;48.470;9.226;2023-07-30T14:11:43;2.90;;;2.80;;
3589;SDS011;1809;48.470;9.226;2023-07-30T14:14:11;2.40;;;2.20;;
3589;SDS011;1809;48.470;9.226;2023-07-30T14:16:37;2.90;;;2.70;;
3589;SDS011;1809;48.470;9.226;2023-07-30T14:19:02;2.70;;;2.50;;
3589;SDS011;1809;48.470;9.226;2023-07-30T14:21:28;2.80;;;2.67;;
3589;SDS011;1809;48.470;9.226;2023-07-30T14:23:53;3.23;;;2.97;;
3589;SDS011;1809;48.470;9.226;2023-07-30T14:26:18;3.23;;;3.03;;
3589;SDS011;1809;48.470;9.226;2023-07-30T14:28:44;3.20;;;3.00;;
3589;SDS011;1809;48.470;9.226;2023-07-30T14:31:09;3.17;;;2.87;;
3589;SDS011;1809;48.470;9.226;2023-07-30T14:33:34;2.90;;;2.80;;
3589;SDS011;1809;48.470;9.226;2023-07-30T14:36:01;2.70;;;2.50;;
3589;SDS011;1809;48.470;9.226;2023-07-30T14:38:28;2.40;;;2.30;;
3589;SDS011;1809;48.470;9.226;2023-07-30T14:40:54;2.70;;;2.50;;
3589;SDS011;1809;48.470;9.226;2023-07-30T14:43:19;4.30;;;2.60;;
3589;SDS011;1809;48.470;9.226;2023-07-30T14:45:44;3.30;;;3.03;;
3589;SDS011;1809;48.470;9.226;2023-07-30T14:48:10;2.47;;;2.27;;
3589;SDS011;1809;48.470;9.226;2023-07-30T14:50:35;2.37;;;2.27;;
3589;SDS011;1809;48.470;9.226;2023-07-30T14:53:03;3.60;;;2.43;;
3589;SDS011;1809;48.470;9.226;2023-07-30T14:55:32;2.87;;;2.47;;
3589;SDS011;1809;48.470;9.226;2023-07-30T14:57:58;4.13;;;2.97;;
3589;SDS011;1809;48.470;9.226;2023-07-30T15:00:23;2.90;;;2.60;;
3589;SDS011;1809;48.470;9.226;2023-07-30T15:02:51;4.67;;;2.17;;
3589;SDS011;1809;48.470;9.226;2023-07-30T15:05:16;3.03;;;2.73;;
3589;SDS011;1809;48.470;9.226;2023-07-30T15:07:42;3.03;;;2.20;;
3589;SDS011;1809;48.470;9.226;2023-07-30T15:10:07;2.20;;;2.10;;
3589;SDS011;1809;48.470;9.226;2023-07-30T15:12:34;2.57;;;2.17;;
3589;SDS011;1809;48.470;9.226;2023-07-30T15:14:59;6.13;;;2.40;;
3589;SDS011;1809;48.470;9.226;2023-07-30T15:17:25;2.80;;;2.60;;